• Join FlightAware (Why Join?)
  • Login
  • US Flag 
01:03PM EDT


 

Airport Tracker/Info


-or-


 

Live Flight TrackerFlight Track Log ✈ C-GKPY ✈ 20-Jul-2013 ✈ CYAV - CYAV

Flight Track Log - Related Links

Times and Time Zones

All times are in EDT time to prevent confusion due to time zone crossing. See the C-GKPY flight status page for this flight to view local times or setup timezone preferences in your user account.

Time Position Orientation Groundspeed Altitude Reporting Facility
EDT Latitude Longitude Course Direction KTS MPH feet Rate Location/Type
10:51AM 50.0500 -97.0167 232° Southwest 90 104 1,100  Level Winnipeg Center
10:52AM 50.0833 -97.0167 360° North 90 104 2,200 960 Climbing Winnipeg Center
10:53AM 50.1000 -97.0167 360° North 100 115 3,100 960 Climbing Winnipeg Center
10:54AM 50.1167 -97.0000 33° Northeast 100 115 4,200 960 Climbing Winnipeg Center
10:55AM 50.0833 -96.9667 147° Southeast 120 138 5,100 420 Climbing Winnipeg Center
10:56AM 50.0564 -97.0325 232° Southwest  Level Estimated
10:56AM 50.0500 -96.9333 147° Southeast 140 161 5,100  Level Winnipeg Center
10:57AM 50.0167 -96.9167 162° South 140 161 5,100  Level Winnipeg Center
10:58AM 49.9833 -96.8833 147° Southeast 140 161 5,100  Level Winnipeg Center
10:59AM 49.9333 -96.8667 168° South 140 161 5,100  Level Winnipeg Center
11:00AM 49.9000 -96.8333 147° Southeast 140 161 5,100  Level Winnipeg Center
11:01AM 49.8667 -96.8167 162° South 140 161 5,200  Climbing Winnipeg Center
11:02AM 49.8667 -96.7500 90° East 130 150 5,100 -60 Descending Winnipeg Center
11:03AM 49.8500 -96.7000 117° Southeast 130 150 5,100  Level Winnipeg Center
11:04AM 49.8167 -96.7333 213° Southwest 150 173 5,100  Level Winnipeg Center
11:05AM 49.8167 -96.7833 270° West 140 161 5,100 -180 Level Winnipeg Center
11:06AM 49.8167 -96.8667 270° West 150 173 4,800 -360 Descending Winnipeg Center
11:07AM 49.8167 -96.9167 270° West 150 173 4,400 -420 Descending Winnipeg Center
11:08AM 49.8167 -97.0000 270° West 150 173 4,000 -240 Descending Winnipeg Center
11:09AM 49.8333 -97.0500 297° West 140 161 4,000  Level Winnipeg Center
11:10AM 49.8167 -97.1000 243° Southwest 140 161 4,100  Climbing Winnipeg Center
11:11AM 49.8333 -97.1500 297° West 130 150 4,100 -60 Level Winnipeg Center
11:12AM 49.8500 -97.1167 52° Northeast 120 138 4,000  Descending Winnipeg Center
11:13AM 49.8167 -97.1000 162° South 120 138 4,100  Climbing Winnipeg Center
11:14AM 49.8000 -97.0667 128° Southeast 120 138 4,100  Level Winnipeg Center
11:15AM 49.8000 -97.1167 270° West 120 138 4,100  Level Winnipeg Center
11:16AM 49.8333 -97.1500 327° Northwest 120 138 4,100  Level Winnipeg Center
11:17AM 49.8500 -97.1167 52° Northeast 120 138 4,100 -60 Level Winnipeg Center
11:18AM 49.8167 -97.1000 162° South 120 138 4,000 -300 Descending Winnipeg Center
11:20AM 49.8167 -97.1167 270° West 130 150 3,200 -360 Descending Winnipeg Center
11:21AM 49.8333 -97.1500 308° West 120 138 3,000 -60 Descending Winnipeg Center
11:22AM 49.8333 -97.1167 90° East 110 127 3,100  Climbing Winnipeg Center
11:23AM 49.8167 -97.1000 147° Southeast 120 138 3,100  Level Winnipeg Center
11:24AM 49.7833 -97.0500 136° Southeast 120 138 3,100 -60 Level Winnipeg Center
11:25AM 49.7667 -97.0500 180° South 120 138 3,000 -300 Descending Winnipeg Center
11:26AM 49.7833 -97.1000 297° West 120 138 2,600 -420 Descending Winnipeg Center
11:27AM 49.8167 -97.1167 342° North 120 138 2,200 -360 Descending Winnipeg Center
11:28AM 49.8333 -97.1500 308° West 110 127 1,900 -300 Descending Winnipeg Center
11:29AM 49.8500 -97.1667 327° Northwest 100 115 1,600 -240 Descending Winnipeg Center
11:30AM 49.8667 -97.2000 308° West 100 115 1,500 180 Descending Winnipeg Center
11:31AM 49.9000 -97.2333 327° Northwest 110 127 2,000 720 Climbing Winnipeg Center
11:32AM 49.9000 -97.2833 270° West 120 138 3,000 540 Climbing Winnipeg Center
11:33AM 49.8667 -97.3000 198° South 130 150 3,100  Climbing Winnipeg Center
11:34AM 49.8333 -97.3333 213° Southwest 120 138 3,100  Level Winnipeg Center
11:35AM 49.8000 -97.3333 180° South 120 138 3,100  Level Winnipeg Center
11:36AM 49.7667 -97.3500 198° South 120 138 3,200  Climbing Winnipeg Center
11:37AM 49.7333 -97.3500 180° South 110 127 3,100 -60 Descending Winnipeg Center
11:38AM 49.7333 -97.3000 90° East 100 115 3,100 -60 Level Winnipeg Center
11:39AM 49.7500 -97.2833 33° Northeast 100 115 3,000 -180 Descending Winnipeg Center
11:40AM 49.7833 -97.2500 33° Northeast 100 115 2,800 -360 Descending Winnipeg Center
11:41AM 49.8000 -97.2500 360° North 110 127 2,300 -600 Descending Winnipeg Center
11:42AM 49.8333 -97.2500 360° North 110 127 1,700 -600 Descending Winnipeg Center
11:43AM 49.8667 -97.2333 18° North 100 115 1,200 -480 Descending Winnipeg Center
11:44AM 49.8833 -97.2333 360° North 90 104 800 240 Descending Winnipeg Center
11:45AM 49.9167 -97.2333 360° North 110 127 1,700 540 Climbing Winnipeg Center
11:46AM 49.9333 -97.1667 69° East 130 150 1,900  Climbing Winnipeg Center
11:47AM 49.9333 -97.1167 90° East 130 150 1,800 -60 Descending Winnipeg Center
11:48AM 49.9500 -97.0667 63° Northeast 120 138 1,800  Level Winnipeg Center
11:49AM 49.9500 -97.1000 270° West 120 138 1,900  Climbing Winnipeg Center
11:50AM 49.9500 -97.0667 90° East 130 150 1,800 -180 Descending Winnipeg Center
11:51AM 49.9833 -97.0500 18° North 110 127 1,600 -300 Descending Winnipeg Center
11:52AM 50.0167 -97.0500 360° North 90 104 1,300 -360 Descending Winnipeg Center
11:53AM 50.0333 -97.0167 52° Northeast 90 104 900 -420 Descending Winnipeg Center